sensor_id;sensor_type;location;lat;lon;timestamp;pressure;altitude;pressure_sealevel;temperature;humidity
45247;BME280;31529;51.158;7.354;2023-05-23T00:00:13;97974.06;;;17.34;99.21
45247;BME280;31529;51.158;7.354;2023-05-23T00:00:45;97974.38;;;17.33;99.80
45247;BME280;31529;51.158;7.354;2023-05-23T00:01:17;97985.47;;;17.31;99.38
45247;BME280;31529;51.158;7.354;2023-05-23T00:01:48;97979.31;;;17.31;99.14
45247;BME280;31529;51.158;7.354;2023-05-23T00:02:20;97975.84;;;17.30;98.80
45247;BME280;31529;51.158;7.354;2023-05-23T00:02:51;97983.91;;;17.30;99.38
45247;BME280;31529;51.158;7.354;2023-05-23T00:03:22;97980.41;;;17.30;99.60
45247;BME280;31529;51.158;7.354;2023-05-23T00:03:57;97970.75;;;17.29;99.08
45247;BME280;31529;51.158;7.354;2023-05-23T00:04:28;97977.72;;;17.30;99.41
45247;BME280;31529;51.158;7.354;2023-05-23T00:05:00;97976.94;;;17.29;99.34
45247;BME280;31529;51.158;7.354;2023-05-23T00:05:33;97979.63;;;17.29;98.69
45247;BME280;31529;51.158;7.354;2023-05-23T00:06:04;97979.16;;;17.27;98.66
45247;BME280;31529;51.158;7.354;2023-05-23T00:06:36;97977.56;;;17.26;99.40
45247;BME280;31529;51.158;7.354;2023-05-23T00:07:08;97974.56;;;17.28;98.78
45247;BME280;31529;51.158;7.354;2023-05-23T00:07:39;97982.19;;;17.26;99.61
45247;BME280;31529;51.158;7.354;2023-05-23T00:08:11;97967.13;;;17.25;99.37
45247;BME280;31529;51.158;7.354;2023-05-23T00:08:42;97981.41;;;17.25;99.58
45247;BME280;31529;51.158;7.354;2023-05-23T00:09:13;97977.13;;;17.24;99.17
45247;BME280;31529;51.158;7.354;2023-05-23T00:09:44;97970.94;;;17.24;99.29
45247;BME280;31529;51.158;7.354;2023-05-23T00:10:15;97973.63;;;17.24;99.56
45247;BME280;31529;51.158;7.354;2023-05-23T00:10:46;97972.06;;;17.23;99.54
45247;BME280;31529;51.158;7.354;2023-05-23T00:11:17;97971.25;;;17.22;99.20
45247;BME280;31529;51.158;7.354;2023-05-23T00:11:49;97967.00;;;17.21;99.25
45247;BME280;31529;51.158;7.354;2023-05-23T00:12:21;97973.19;;;17.22;99.25
45247;BME280;31529;51.158;7.354;2023-05-23T00:12:52;97968.91;;;17.21;99.25
45247;BME280;31529;51.158;7.354;2023-05-23T00:13:23;97965.41;;;17.20;99.72
45247;BME280;31529;51.158;7.354;2023-05-23T00:13:54;97964.63;;;17.20;99.64
45247;BME280;31529;51.158;7.354;2023-05-23T00:14:27;97970.81;;;17.20;99.12
45247;BME280;31529;51.158;7.354;2023-05-23T00:15:03;97960.34;;;17.18;99.47
45247;BME280;31529;51.158;7.354;2023-05-23T00:15:38;97959.56;;;17.18;99.96
45247;BME280;31529;51.158;7.354;2023-05-23T00:16:11;97959.56;;;17.18;99.21
45247;BME280;31529;51.158;7.354;2023-05-23T00:16:42;97962.25;;;17.18;99.74
45247;BME280;31529;51.158;7.354;2023-05-23T00:17:15;97966.84;;;17.17;99.67
45247;BME280;31529;51.158;7.354;2023-05-23T00:17:47;97964.16;;;17.17;99.29
45247;BME280;31529;51.158;7.354;2023-05-23T00:18:18;97961.00;;;17.15;99.86
45247;BME280;31529;51.158;7.354;2023-05-23T00:18:49;97961.00;;;17.15;99.86
45247;BME280;31529;51.158;7.354;2023-05-23T00:19:21;97961.00;;;17.15;99.97
45247;BME280;31529;51.158;7.354;2023-05-23T00:19:52;97962.91;;;17.15;99.94
45247;BME280;31529;51.158;7.354;2023-05-23T00:20:25;97964.81;;;17.14;99.93
45247;BME280;31529;51.158;7.354;2023-05-23T00:20:56;97955.94;;;17.14;99.83
45247;BME280;31529;51.158;7.354;2023-05-23T00:21:28;97960.53;;;17.13;99.85
45247;BME280;31529;51.158;7.354;2023-05-23T00:22:00;97960.22;;;17.15;100.00
45247;BME280;31529;51.158;7.354;2023-05-23T00:22:32;97958.31;;;17.15;100.00
45247;BME280;31529;51.158;7.354;2023-05-23T00:23:04;97951.00;;;17.16;99.85
45247;BME280;31529;51.158;7.354;2023-05-23T00:23:35;97959.88;;;17.16;100.00
45247;BME280;31529;51.158;7.354;2023-05-23T00:24:06;97964.16;;;17.17;100.00
45247;BME280;31529;51.158;7.354;2023-05-23T00:24:37;97959.56;;;17.18;99.94
45247;BME280;31529;51.158;7.354;2023-05-23T00:25:08;97964.94;;;17.18;100.00
45247;BME280;31529;51.158;7.354;2023-05-23T00:25:39;97961.94;;;17.20;100.00
45247;BME280;31529;51.158;7.354;2023-05-23T00:26:11;97959.22;;;17.20;99.93
45247;BME280;31529;51.158;7.354;2023-05-23T00:26:43;97960.81;;;17.21;100.00
45247;BME280;31529;51.158;7.354;2023-05-23T00:27:15;97963.53;;;17.21;99.95
45247;BME280;31529;51.158;7.354;2023-05-23T00:27:46;97970.47;;;17.22;99.77
45247;BME280;31529;51.158;7.354;2023-05-23T00:28:17;97963.53;;;17.21;100.00
45247;BME280;31529;51.158;7.354;2023-05-23T00:28:48;97971.25;;;17.22;100.00
45247;BME280;31529;51.158;7.354;2023-05-23T00:29:20;97968.25;;;17.24;100.00
45247;BME280;31529;51.158;7.354;2023-05-23T00:29:51;97971.25;;;17.22;100.00
45247;BME280;31529;51.158;7.354;2023-05-23T00:30:22;97968.25;;;17.24;99.36
45247;BME280;31529;51.158;7.354;2023-05-23T00:30:53;97970.94;;;17.24;99.50
45247;BME280;31529;51.158;7.354;2023-05-23T00:31:24;97957.19;;;17.16;99.87
45247;BME280;31529;51.158;7.354;2023-05-23T00:31:55;97975.22;;;17.25;99.75
45247;BME280;31529;51.158;7.354;2023-05-23T00:32:26;97982.19;;;17.26;99.44
45247;BME280;31529;51.158;7.354;2023-05-23T00:32:57;97974.09;;;17.26;99.56
45247;BME280;31529;51.158;7.354;2023-05-23T00:33:29;97976.78;;;17.26;99.70
45247;BME280;31529;51.158;7.354;2023-05-23T00:34:02;97981.88;;;17.27;100.00
45247;BME280;31529;51.158;7.354;2023-05-23T00:34:33;97977.25;;;17.28;99.98
45247;BME280;31529;51.158;7.354;2023-05-23T00:35:06;97985.34;;;17.28;99.32
45247;BME280;31529;51.158;7.354;2023-05-23T00:35:37;97988.03;;;17.28;99.20
45247;BME280;31529;51.158;7.354;2023-05-23T00:36:08;97983.47;;;17.28;99.77
45247;BME280;31529;51.158;7.354;2023-05-23T00:36:40;97980.75;;;17.28;99.57
45247;BME280;31529;51.158;7.354;2023-05-23T00:37:13;97976.16;;;17.29;99.22
45247;BME280;31529;51.158;7.354;2023-05-23T00:37:47;97977.72;;;17.30;99.81
45247;BME280;31529;51.158;7.354;2023-05-23T00:38:19;97975.84;;;17.30;99.32
45247;BME280;31529;51.158;7.354;2023-05-23T00:38:51;97979.31;;;17.31;99.59
45247;BME280;31529;51.158;7.354;2023-05-23T00:39:22;97979.00;;;17.32;99.55
45247;BME280;31529;51.158;7.354;2023-05-23T00:39:54;97977.06;;;17.33;99.03
45247;BME280;31529;51.158;7.354;2023-05-23T00:40:25;97983.25;;;17.33;99.19
45247;BME280;31529;51.158;7.354;2023-05-23T00:40:56;97984.06;;;17.34;99.23
45247;BME280;31529;51.158;7.354;2023-05-23T00:41:27;97982.94;;;17.35;98.68
45247;BME280;31529;51.158;7.354;2023-05-23T00:42:02;97979.13;;;17.36;99.06
45247;BME280;31529;51.158;7.354;2023-05-23T00:42:34;97982.28;;;17.38;99.61
45247;BME280;31529;51.158;7.354;2023-05-23T00:43:05;97972.28;;;17.39;99.28
45247;BME280;31529;51.158;7.354;2023-05-23T00:43:37;97976.56;;;17.40;99.19
45247;BME280;31529;51.158;7.354;2023-05-23T00:44:09;97988.59;;;17.42;98.50
45247;BME280;31529;51.158;7.354;2023-05-23T00:44:40;97978.59;;;17.43;98.95
45247;BME280;31529;51.158;7.354;2023-05-23T00:45:11;97973.97;;;17.43;98.21
45247;BME280;31529;51.158;7.354;2023-05-23T00:45:42;97984.44;;;17.45;98.06
45247;BME280;31529;51.158;7.354;2023-05-23T00:46:13;97974.78;;;17.44;97.60
45247;BME280;31529;51.158;7.354;2023-05-23T00:46:46;97981.44;;;17.46;98.15
45247;BME280;31529;51.158;7.354;2023-05-23T00:47:20;97981.44;;;17.46;97.23
45247;BME280;31529;51.158;7.354;2023-05-23T00:47:51;97980.31;;;17.47;97.86
45247;BME280;31529;51.158;7.354;2023-05-23T00:48:24;97977.63;;;17.47;97.83
45247;BME280;31529;51.158;7.354;2023-05-23T00:48:56;97983.81;;;17.48;97.70
45247;BME280;31529;51.158;7.354;2023-05-23T00:49:27;97986.97;;;17.50;97.17
45247;BME280;31529;51.158;7.354;2023-05-23T00:49:59;97906.84;;;17.00;97.19
45247;BME280;31529;51.158;7.354;2023-05-23T00:50:30;97984.25;;;17.50;96.92
45247;BME280;31529;51.158;7.354;2023-05-23T00:51:03;97980.78;;;17.49;96.42
45247;BME280;31529;51.158;7.354;2023-05-23T00:51:34;97978.09;;;17.49;96.71
45247;BME280;31529;51.158;7.354;2023-05-23T00:52:05;97985.38;;;17.49;96.00
45247;BME280;31529;51.158;7.354;2023-05-23T00:52:37;97981.09;;;17.48;96.23
45247;BME280;31529;51.158;7.354;2023-05-23T00:53:09;97975.72;;;17.48;95.44
45247;BME280;31529;51.158;7.354;2023-05-23T00:53:40;97978.41;;;17.48;95.89
45247;BME280;31529;51.158;7.354;2023-05-23T00:54:12;97978.72;;;17.46;95.21
45247;BME280;31529;51.158;7.354;2023-05-23T00:54:45;97980.66;;;17.46;94.96
45247;BME280;31529;51.158;7.354;2023-05-23T00:55:16;97976.03;;;17.46;94.81
45247;BME280;31529;51.158;7.354;2023-05-23T00:55:48;97981.44;;;17.46;95.38
45247;BME280;31529;51.158;7.354;2023-05-23T00:56:19;97973.66;;;17.45;94.63
45247;BME280;31529;51.158;7.354;2023-05-23T00:56:50;97981.28;;;17.43;94.06
45247;BME280;31529;51.158;7.354;2023-05-23T00:57:21;97982.44;;;17.42;94.50
45247;BME280;31529;51.158;7.354;2023-05-23T00:57:53;97984.31;;;17.41;94.18
45247;BME280;31529;51.158;7.354;2023-05-23T00:58:27;97982.75;;;17.40;93.96
45247;BME280;31529;51.158;7.354;2023-05-23T00:58:58;97974.97;;;17.39;94.29
45247;BME280;31529;51.158;7.354;2023-05-23T00:59:30;97978.78;;;17.37;94.17
45247;BME280;31529;51.158;7.354;2023-05-23T01:00:02;97975.63;;;17.35;94.17
45247;BME280;31529;51.158;7.354;2023-05-23T01:00:33;97980.22;;;17.35;93.82
45247;BME280;31529;51.158;7.354;2023-05-23T01:01:06;97974.84;;;17.35;94.09
45247;BME280;31529;51.158;7.354;2023-05-23T01:01:37;97977.53;;;17.35;93.55
45247;BME280;31529;51.158;7.354;2023-05-23T01:02:09;97970.91;;;17.32;93.43
45247;BME280;31529;51.158;7.354;2023-05-23T01:02:45;97975.47;;;17.32;93.79
45247;BME280;31529;51.158;7.354;2023-05-23T01:03:17;97983.09;;;17.30;93.35
45247;BME280;31529;51.158;7.354;2023-05-23T01:03:48;97980.75;;;17.28;93.50
45247;BME280;31529;51.158;7.354;2023-05-23T01:04:20;97978.38;;;17.27;93.89
45247;BME280;31529;51.158;7.354;2023-05-23T01:04:55;97980.63;;;17.25;93.63
45247;BME280;31529;51.158;7.354;2023-05-23T01:05:26;97985.22;;;17.24;93.72
45247;BME280;31529;51.158;7.354;2023-05-23T01:05:58;97984.44;;;17.24;93.56
45247;BME280;31529;51.158;7.354;2023-05-23T01:06:29;97982.84;;;17.23;93.55
45247;BME280;31529;51.158;7.354;2023-05-23T01:07:02;97987.78;;;17.21;93.40
45247;BME280;31529;51.158;7.354;2023-05-23T01:07:34;97986.97;;;17.20;94.03
45247;BME280;31529;51.158;7.354;2023-05-23T01:08:05;97997.75;;;17.20;93.54
45247;BME280;31529;51.158;7.354;2023-05-23T01:08:37;97988.88;;;17.20;93.78
45247;BME280;31529;51.158;7.354;2023-05-23T01:09:08;97990.00;;;17.18;93.69
45247;BME280;31529;51.158;7.354;2023-05-23T01:09:39;97993.50;;;17.19;93.12
45247;BME280;31529;51.158;7.354;2023-05-23T01:10:12;98002.69;;;17.18;93.52
45247;BME280;31529;51.158;7.354;2023-05-23T01:10:44;97997.31;;;17.18;93.74
45247;BME280;31529;51.158;7.354;2023-05-23T01:11:24;97990.34;;;17.17;93.61
45247;BME280;31529;51.158;7.354;2023-05-23T01:12:37;98003.47;;;17.18;94.42
45247;BME280;31529;51.158;7.354;2023-05-23T01:14:08;98004.47;;;17.14;94.21
45247;BME280;31529;51.158;7.354;2023-05-23T01:15:24;98005.25;;;17.14;94.51
45247;BME280;31529;51.158;7.354;2023-05-23T01:16:19;97998.75;;;17.15;94.05
45247;BME280;31529;51.158;7.354;2023-05-23T01:17:02;98003.81;;;17.17;94.06
45247;BME280;31529;51.158;7.354;2023-05-23T01:17:47;98000.31;;;17.16;93.90
45247;BME280;31529;51.158;7.354;2023-05-23T01:18:32;98008.41;;;17.16;93.79
45247;BME280;31529;51.158;7.354;2023-05-23T01:19:25;97998.44;;;17.17;94.09
45247;BME280;31529;51.158;7.354;2023-05-23T01:20:10;97995.75;;;17.17;94.82
45247;BME280;31529;51.158;7.354;2023-05-23T01:20:44;97994.47;;;17.14;93.89
45247;BME280;31529;51.158;7.354;2023-05-23T01:21:25;98003.34;;;17.15;94.49
45247;BME280;31529;51.158;7.354;2023-05-23T01:21:57;97989.06;;;17.14;94.37
45247;BME280;31529;51.158;7.354;2023-05-23T01:23:47;97997.47;;;17.13;93.27
45247;BME280;31529;51.158;7.354;2023-05-23T01:27:07;97983.06;;;17.09;92.29
45247;BME280;31529;51.158;7.354;2023-05-23T01:28:16;97987.69;;;17.08;92.15
45247;BME280;31529;51.158;7.354;2023-05-23T01:28:54;97994.66;;;17.09;92.06
45247;BME280;31529;51.158;7.354;2023-05-23T01:29:33;97986.59;;;17.09;92.13
45247;BME280;31529;51.158;7.354;2023-05-23T01:30:07;97990.84;;;17.10;92.04
45247;BME280;31529;51.158;7.354;2023-05-23T01:30:41;97990.06;;;17.10;91.72
45247;BME280;31529;51.158;7.354;2023-05-23T01:31:15;97989.28;;;17.09;91.88
45247;BME280;31529;51.158;7.354;2023-05-23T01:31:49;97994.66;;;17.09;92.46
45247;BME280;31529;51.158;7.354;2023-05-23T01:32:24;97993.84;;;17.09;92.23
45247;BME280;31529;51.158;7.354;2023-05-23T01:32:56;97991.16;;;17.09;92.14
45247;BME280;31529;51.158;7.354;2023-05-23T01:33:29;97994.66;;;17.09;92.10
45247;BME280;31529;51.158;7.354;2023-05-23T01:34:02;97993.06;;;17.08;92.51
45247;BME280;31529;51.158;7.354;2023-05-23T01:34:34;97987.69;;;17.08;92.88
45247;BME280;31529;51.158;7.354;2023-05-23T01:35:06;97993.06;;;17.08;92.55
45247;BME280;31529;51.158;7.354;2023-05-23T01:35:39;97989.28;;;17.09;92.81
45247;BME280;31529;51.158;7.354;2023-05-23T01:36:13;97990.84;;;17.10;93.09
45247;BME280;31529;51.158;7.354;2023-05-23T01:36:46;97988.94;;;17.11;92.43
45247;BME280;31529;51.158;7.354;2023-05-23T01:37:19;97994.00;;;17.12;92.24
45247;BME280;31529;51.158;7.354;2023-05-23T01:37:52;97998.28;;;17.13;92.43
45247;BME280;31529;51.158;7.354;2023-05-23T01:38:23;97992.91;;;17.13;92.96
45247;BME280;31529;51.158;7.354;2023-05-23T01:38:55;97996.38;;;17.14;92.42
45247;BME280;31529;51.158;7.354;2023-05-23T01:39:26;97990.19;;;17.13;92.06
45247;BME280;31529;51.158;7.354;2023-05-23T01:39:57;97992.91;;;17.13;92.04
45247;BME280;31529;51.158;7.354;2023-05-23T01:40:28;97990.19;;;17.13;92.57
45247;BME280;31529;51.158;7.354;2023-05-23T01:40:59;97991.31;;;17.12;92.65
45247;BME280;31529;51.158;7.354;2023-05-23T01:41:30;97994.00;;;17.12;92.71
45247;BME280;31529;51.158;7.354;2023-05-23T01:42:02;97984.34;;;17.11;92.79
45247;BME280;31529;51.158;7.354;2023-05-23T01:42:33;97988.94;;;17.11;92.81
45247;BME280;31529;51.158;7.354;2023-05-23T01:43:05;97990.84;;;17.10;92.28
45247;BME280;31529;51.158;7.354;2023-05-23T01:43:36;97997.38;;;17.09;92.47
45247;BME280;31529;51.158;7.354;2023-05-23T01:44:08;97994.16;;;17.07;92.08
45247;BME280;31529;51.158;7.354;2023-05-23T01:44:40;97987.22;;;17.06;92.43
45247;BME280;31529;51.158;7.354;2023-05-23T01:45:12;97990.22;;;17.05;92.96
45247;BME280;31529;51.158;7.354;2023-05-23T01:45:43;97984.38;;;17.03;93.10
45247;BME280;31529;51.158;7.354;2023-05-23T01:46:15;97995.94;;;17.03;93.46
45247;BME280;31529;51.158;7.354;2023-05-23T01:46:46;97997.84;;;17.03;93.00
45247;BME280;31529;51.158;7.354;2023-05-23T01:47:18;97993.25;;;17.03;93.09
45247;BME280;31529;51.158;7.354;2023-05-23T01:47:50;98001.34;;;17.03;93.27
45247;BME280;31529;51.158;7.354;2023-05-23T01:48:23;98001.34;;;17.03;93.56
45247;BME280;31529;51.158;7.354;2023-05-23T01:48:56;98001.34;;;17.03;93.39
45247;BME280;31529;51.158;7.354;2023-05-23T01:49:28;97998.63;;;17.03;93.78
45247;BME280;31529;51.158;7.354;2023-05-23T01:50:01;98002.16;;;17.04;94.10
45247;BME280;31529;51.158;7.354;2023-05-23T01:50:33;98002.94;;;17.04;94.15
45247;BME280;31529;51.158;7.354;2023-05-23T01:51:04;98004.50;;;17.05;93.69
45247;BME280;31529;51.158;7.354;2023-05-23T01:51:37;98004.50;;;17.05;94.23
45247;BME280;31529;51.158;7.354;2023-05-23T01:52:09;97924.34;;;16.55;94.27
45247;BME280;31529;51.158;7.354;2023-05-23T01:52:41;98008.47;;;17.08;93.99
45247;BME280;31529;51.158;7.354;2023-05-23T01:53:14;98002.25;;;17.07;94.00
45247;BME280;31529;51.158;7.354;2023-05-23T01:53:48;98009.25;;;17.08;93.93
45247;BME280;31529;51.158;7.354;2023-05-23T01:54:21;98010.84;;;17.09;94.22
45247;BME280;31529;51.158;7.354;2023-05-23T01:54:53;98005.44;;;17.09;93.66
45247;BME280;31529;51.158;7.354;2023-05-23T01:55:26;98002.41;;;17.11;93.50
45247;BME280;31529;51.158;7.354;2023-05-23T01:55:58;98008.16;;;17.09;93.31
45247;BME280;31529;51.158;7.354;2023-05-23T01:56:33;98012.41;;;17.10;92.91
45247;BME280;31529;51.158;7.354;2023-05-23T01:57:05;98005.09;;;17.11;93.07
45247;BME280;31529;51.158;7.354;2023-05-23T01:57:36;98010.03;;;17.09;92.53
45247;BME280;31529;51.158;7.354;2023-05-23T01:58:08;98004.97;;;17.07;92.84
45247;BME280;31529;51.158;7.354;2023-05-23T01:58:39;98006.41;;;17.05;92.98
45247;BME280;31529;51.158;7.354;2023-05-23T01:59:10;98007.53;;;17.04;92.71
45247;BME280;31529;51.158;7.354;2023-05-23T01:59:41;98006.72;;;17.03;93.02
45247;BME280;31529;51.158;7.354;2023-05-23T02:00:13;98005.16;;;17.02;93.06
45247;BME280;31529;51.158;7.354;2023-05-23T02:00:45;98007.84;;;17.02;93.37
45247;BME280;31529;51.158;7.354;2023-05-23T02:01:16;98004.38;;;17.02;93.32
45247;BME280;31529;51.158;7.354;2023-05-23T02:01:47;98007.41;;;17.00;93.11
45247;BME280;31529;51.158;7.354;2023-05-23T02:02:19;98007.41;;;17.00;93.64
45247;BME280;31529;51.158;7.354;2023-05-23T02:02:50;98006.94;;;16.98;93.42
45247;BME280;31529;51.158;7.354;2023-05-23T02:03:21;98013.41;;;16.97;93.04
45247;BME280;31529;51.158;7.354;2023-05-23T02:03:52;98006.47;;;16.96;93.66
45247;BME280;31529;51.158;7.354;2023-05-23T02:04:23;98008.03;;;16.97;93.40
45247;BME280;31529;51.158;7.354;2023-05-23T02:04:54;98009.94;;;16.96;94.01
45247;BME280;31529;51.158;7.354;2023-05-23T02:05:27;98019.94;;;16.96;93.49
45247;BME280;31529;51.158;7.354;2023-05-23T02:05:58;98028.81;;;16.96;93.99
45247;BME280;31529;51.158;7.354;2023-05-23T02:06:30;98010.25;;;16.95;93.13
45247;BME280;31529;51.158;7.354;2023-05-23T02:07:01;98014.06;;;16.94;92.41
45247;BME280;31529;51.158;7.354;2023-05-23T02:07:32;98010.91;;;16.92;92.27
45247;BME280;31529;51.158;7.354;2023-05-23T02:08:03;98021.22;;;16.90;92.25
45247;BME280;31529;51.158;7.354;2023-05-23T02:08:34;98015.34;;;16.88;92.79
45247;BME280;31529;51.158;7.354;2023-05-23T02:09:05;98013.78;;;16.87;91.72
45247;BME280;31529;51.158;7.354;2023-05-23T02:09:37;98019.81;;;16.84;92.34
45247;BME280;31529;51.158;7.354;2023-05-23T02:10:08;98012.34;;;16.81;91.64
45247;BME280;31529;51.158;7.354;2023-05-23T02:10:39;98018.06;;;16.79;92.59
45247;BME280;31529;51.158;7.354;2023-05-23T02:11:10;98011.88;;;16.78;93.03
45247;BME280;31529;51.158;7.354;2023-05-23T02:11:41;98018.38;;;16.77;93.17
45247;BME280;31529;51.158;7.354;2023-05-23T02:12:12;98019.50;;;16.76;92.91
45247;BME280;31529;51.158;7.354;2023-05-23T02:12:44;98023.31;;;16.75;93.39
45247;BME280;31529;51.158;7.354;2023-05-23T02:13:15;98021.09;;;16.77;93.13
45247;BME280;31529;51.158;7.354;2023-05-23T02:13:46;98016.78;;;16.76;93.65
45247;BME280;31529;51.158;7.354;2023-05-23T02:14:17;98016.78;;;16.76;93.42
45247;BME280;31529;51.158;7.354;2023-05-23T02:14:48;98023.31;;;16.75;93.57
45247;BME280;31529;51.158;7.354;2023-05-23T02:15:21;98018.69;;;16.76;93.12
45247;BME280;31529;51.158;7.354;2023-05-23T02:15:53;98019.50;;;16.76;93.32
45247;BME280;31529;51.158;7.354;2023-05-23T02:16:23;98023.31;;;16.75;93.55
45247;BME280;31529;51.158;7.354;2023-05-23T02:16:55;98021.41;;;16.76;93.14
45247;BME280;31529;51.158;7.354;2023-05-23T02:17:26;98028.69;;;16.75;93.22
45247;BME280;31529;51.158;7.354;2023-05-23T02:17:58;98020.94;;;16.74;93.12
45247;BME280;31529;51.158;7.354;2023-05-23T02:18:29;98025.19;;;16.75;93.51
45247;BME280;31529;51.158;7.354;2023-05-23T02:19:00;98024.41;;;16.74;93.54
45247;BME280;31529;51.158;7.354;2023-05-23T02:19:31;98017.91;;;16.75;93.13
45247;BME280;31529;51.158;7.354;2023-05-23T02:20:03;98018.25;;;16.74;93.12
45247;BME280;31529;51.158;7.354;2023-05-23T02:20:35;98022.84;;;16.73;93.02
45247;BME280;31529;51.158;7.354;2023-05-23T02:21:07;98013.94;;;16.73;93.11
45247;BME280;31529;51.158;7.354;2023-05-23T02:21:38;98019.34;;;16.73;93.01
45247;BME280;31529;51.158;7.354;2023-05-23T02:22:09;98026.31;;;16.74;93.17
45247;BME280;31529;51.158;7.354;2023-05-23T02:22:40;98016.63;;;16.73;93.26
45247;BME280;31529;51.158;7.354;2023-05-23T02:23:11;98017.09;;;16.75;93.30
45247;BME280;31529;51.158;7.354;2023-05-23T02:23:42;98020.16;;;16.73;93.03
45247;BME280;31529;51.158;7.354;2023-05-23T02:24:13;98023.31;;;16.75;92.79
45247;BME280;31529;51.158;7.354;2023-05-23T02:24:45;98028.69;;;16.75;92.46
45247;BME280;31529;51.158;7.354;2023-05-23T02:25:16;98027.88;;;16.75;92.60
45247;BME280;31529;51.158;7.354;2023-05-23T02:25:47;98026.00;;;16.75;92.63
45247;BME280;31529;51.158;7.354;2023-05-23T02:26:18;98033.28;;;16.75;92.49
45247;BME280;31529;51.158;7.354;2023-05-23T02:26:49;98027.88;;;16.75;92.54
45247;BME280;31529;51.158;7.354;2023-05-23T02:27:21;98027.09;;;16.74;93.25
45247;BME280;31529;51.158;7.354;2023-05-23T02:27:52;98027.88;;;16.75;92.68
45247;BME280;31529;51.158;7.354;2023-05-23T02:28:23;98032.19;;;16.76;92.90
45247;BME280;31529;51.158;7.354;2023-05-23T02:28:54;98025.69;;;16.77;93.21
45247;BME280;31529;51.158;7.354;2023-05-23T02:29:25;98026.47;;;16.77;92.86
45247;BME280;31529;51.158;7.354;2023-05-23T02:29:56;98021.09;;;16.77;93.13
45247;BME280;31529;51.158;7.354;2023-05-23T02:30:27;98029.94;;;16.78;93.22
45247;BME280;31529;51.158;7.354;2023-05-23T02:30:58;98026.16;;;16.79;92.96
45247;BME280;31529;51.158;7.354;2023-05-23T02:31:29;98029.63;;;16.79;92.64
45247;BME280;31529;51.158;7.354;2023-05-23T02:32:01;98032.31;;;16.79;93.21
45247;BME280;31529;51.158;7.354;2023-05-23T02:32:32;98022.31;;;16.80;93.43
45247;BME280;31529;51.158;7.354;2023-05-23T02:33:03;98030.41;;;16.80;92.81
45247;BME280;31529;51.158;7.354;2023-05-23T02:33:36;98028.22;;;16.82;92.70
45247;BME280;31529;51.158;7.354;2023-05-23T02:34:07;98027.41;;;16.82;92.31
45247;BME280;31529;51.158;7.354;2023-05-23T02:34:38;98031.69;;;16.83;91.70
45247;BME280;31529;51.158;7.354;2023-05-23T02:35:10;98035.19;;;16.83;91.92
45247;BME280;31529;51.158;7.354;2023-05-23T02:35:41;98034.38;;;16.83;92.29
45247;BME280;31529;51.158;7.354;2023-05-23T02:36:12;98029.81;;;16.83;92.28
45247;BME280;31529;51.158;7.354;2023-05-23T02:36:44;98034.38;;;16.83;92.45
45247;BME280;31529;51.158;7.354;2023-05-23T02:37:15;98030.59;;;16.84;92.23
45247;BME280;31529;51.158;7.354;2023-05-23T02:37:46;98038.69;;;16.84;92.20
45247;BME280;31529;51.158;7.354;2023-05-23T02:38:17;98029.50;;;16.85;92.72
45247;BME280;31529;51.158;7.354;2023-05-23T02:38:50;98037.56;;;16.85;92.46
45247;BME280;31529;51.158;7.354;2023-05-23T02:39:21;98028.38;;;16.86;91.97
45247;BME280;31529;51.158;7.354;2023-05-23T02:39:52;98032.19;;;16.85;91.96
45247;BME280;31529;51.158;7.354;2023-05-23T02:40:23;98032.19;;;16.85;91.99
45247;BME280;31529;51.158;7.354;2023-05-23T02:40:54;98026.00;;;16.84;91.23
45247;BME280;31529;51.158;7.354;2023-05-23T02:41:27;98025.19;;;16.84;91.65
45247;BME280;31529;51.158;7.354;2023-05-23T02:41:58;98026.81;;;16.85;91.56
45247;BME280;31529;51.158;7.354;2023-05-23T02:42:29;98028.38;;;16.86;91.19
45247;BME280;31529;51.158;7.354;2023-05-23T02:43:00;98034.53;;;16.86;91.67
45247;BME280;31529;51.158;7.354;2023-05-23T02:43:31;98035.66;;;16.85;91.22
45247;BME280;31529;51.158;7.354;2023-05-23T02:44:02;98033.75;;;16.86;91.15
45247;BME280;31529;51.158;7.354;2023-05-23T02:44:33;98032.66;;;16.87;91.17
45247;BME280;31529;51.158;7.354;2023-05-23T02:45:05;98035.34;;;16.87;91.22
45247;BME280;31529;51.158;7.354;2023-05-23T02:45:36;98032.66;;;16.87;91.45
45247;BME280;31529;51.158;7.354;2023-05-23T02:46:07;98025.34;;;16.87;91.13
45247;BME280;31529;51.158;7.354;2023-05-23T02:46:38;98031.53;;;16.88;91.49
45247;BME280;31529;51.158;7.354;2023-05-23T02:47:09;98028.84;;;16.88;91.82
45247;BME280;31529;51.158;7.354;2023-05-23T02:47:40;98025.34;;;16.87;91.02
45247;BME280;31529;51.158;7.354;2023-05-23T02:48:11;98026.13;;;16.88;91.86
45247;BME280;31529;51.158;7.354;2023-05-23T02:48:42;98023.44;;;16.88;91.15
45247;BME280;31529;51.158;7.354;2023-05-23T02:49:15;98021.53;;;16.88;91.73
45247;BME280;31529;51.158;7.354;2023-05-23T02:49:46;98026.13;;;16.88;91.56
45247;BME280;31529;51.158;7.354;2023-05-23T02:50:17;98023.13;;;16.89;91.30
45247;BME280;31529;51.158;7.354;2023-05-23T02:50:48;98019.66;;;16.89;91.71
45247;BME280;31529;51.158;7.354;2023-05-23T02:51:19;98021.53;;;16.88;91.71
45247;BME280;31529;51.158;7.354;2023-05-23T02:51:50;98016.94;;;16.89;91.10
45247;BME280;31529;51.158;7.354;2023-05-23T02:52:23;98020.75;;;16.88;91.77
45247;BME280;31529;51.158;7.354;2023-05-23T02:52:55;98021.53;;;16.88;91.87
45247;BME280;31529;51.158;7.354;2023-05-23T02:53:26;98024.22;;;16.88;91.76
45247;BME280;31529;51.158;7.354;2023-05-23T02:53:57;98018.50;;;16.90;91.48
45247;BME280;31529;51.158;7.354;2023-05-23T02:54:28;98026.59;;;16.90;91.31
45247;BME280;31529;51.158;7.354;2023-05-23T02:54:59;98023.13;;;16.89;91.73
45247;BME280;31529;51.158;7.354;2023-05-23T02:55:30;98023.13;;;16.89;91.86
45247;BME280;31529;51.158;7.354;2023-05-23T02:56:01;98016.63;;;16.90;92.21
45247;BME280;31529;51.158;7.354;2023-05-23T02:56:33;98021.22;;;16.90;91.49
45247;BME280;31529;51.158;7.354;2023-05-23T02:57:04;98017.72;;;16.89;91.85